createdAt,value
2023-02-25T00:00:34.395Z,11.02
2023-02-25T00:03:02.027Z,10.78
2023-02-25T00:05:31.768Z,10.74
2023-02-25T00:07:59.672Z,10.71
2023-02-25T00:10:27.135Z,10.57
2023-02-25T00:12:54.302Z,10.41
2023-02-25T00:15:21.497Z,10.16
2023-02-25T00:17:49.944Z,10.55
2023-02-25T00:20:17.242Z,10.18
2023-02-25T00:22:44.434Z,10.16
2023-02-25T00:25:11.865Z,10.24
2023-02-25T00:27:39.012Z,10.19
2023-02-25T00:30:06.296Z,10.15
2023-02-25T00:32:33.781Z,10.48
2023-02-25T00:35:01.858Z,10.37
2023-02-25T00:37:30.186Z,10.51
2023-02-25T00:39:57.677Z,10.40
2023-02-25T00:42:27.085Z,10.61
2023-02-25T00:44:54.237Z,10.07
2023-02-25T00:47:23.227Z,10.22
2023-02-25T00:49:52.213Z,10.38
2023-02-25T00:52:19.362Z,10.39
2023-02-25T00:54:47.122Z,10.54
2023-02-25T00:57:14.478Z,10.81
2023-02-25T00:59:41.621Z,10.81
2023-02-25T01:02:09.052Z,10.58
2023-02-25T01:04:36.187Z,10.45
2023-02-25T01:07:03.881Z,10.39
2023-02-25T01:09:32.723Z,10.57
2023-02-25T01:11:59.852Z,10.39
2023-02-25T01:14:27.180Z,10.34
2023-02-25T01:16:57.766Z,10.33
2023-02-25T01:19:25.579Z,10.40
2023-02-25T01:21:54.267Z,10.54
2023-02-25T01:24:28.884Z,10.91
2023-02-25T01:26:57.408Z,10.82
2023-02-25T01:29:26.434Z,10.68
2023-02-25T01:31:58.161Z,10.61
2023-02-25T01:34:26.058Z,10.57
2023-02-25T01:36:53.266Z,10.88
2023-02-25T01:39:20.825Z,10.87
2023-02-25T01:41:51.507Z,10.75
2023-02-25T01:44:22.974Z,10.41
2023-02-25T01:46:52.594Z,10.56
2023-02-25T01:49:35.650Z,10.87
2023-02-25T01:52:04.788Z,10.52
2023-02-25T01:54:32.198Z,10.72
2023-02-25T01:56:59.388Z,10.69
2023-02-25T01:59:27.918Z,10.70
2023-02-25T02:01:55.063Z,10.64
2023-02-25T02:04:23.232Z,11.06
2023-02-25T02:06:50.743Z,10.21
2023-02-25T02:09:25.610Z,10.59
2023-02-25T02:11:53.126Z,10.21
2023-02-25T02:14:21.535Z,10.32
2023-02-25T02:16:58.618Z,10.37
2023-02-25T02:19:26.005Z,10.34
2023-02-25T02:21:55.936Z,9.94
2023-02-25T02:24:28.834Z,10.13
2023-02-25T02:26:58.242Z,10.15
2023-02-25T02:29:26.594Z,10.09
2023-02-25T02:31:54.125Z,10.09
2023-02-25T02:34:33.771Z,10.24
2023-02-25T02:37:18.880Z,10.03
2023-02-25T02:39:46.206Z,10.02
2023-02-25T02:42:32.739Z,9.72
2023-02-25T02:45:01.156Z,9.73
2023-02-25T02:47:28.778Z,9.73
2023-02-25T02:49:57.825Z,9.62
2023-02-25T02:52:27.824Z,9.52
2023-02-25T02:54:55.919Z,9.47
2023-02-25T02:57:23.141Z,9.60
2023-02-25T02:59:52.370Z,9.55
2023-02-25T03:02:23.974Z,9.52
2023-02-25T03:04:52.051Z,9.63
2023-02-25T03:07:19.287Z,9.90
2023-02-25T03:09:50.898Z,9.76
2023-02-25T03:12:18.306Z,9.50
2023-02-25T03:14:45.528Z,9.89
2023-02-25T03:17:22.702Z,9.85
2023-02-25T03:19:59.944Z,9.76
2023-02-25T03:22:28.026Z,9.74
2023-02-25T03:25:05.045Z,9.67
2023-02-25T03:27:58.694Z,9.95
2023-02-25T03:30:33.380Z,10.01
2023-02-25T03:33:05.698Z,9.98
2023-02-25T03:35:33.164Z,9.93
2023-02-25T03:38:02.127Z,10.23
2023-02-25T03:40:29.332Z,10.23
2023-02-25T03:42:59.037Z,10.19
2023-02-25T03:45:27.096Z,10.89
2023-02-25T03:47:54.255Z,10.93
2023-02-25T03:50:21.636Z,10.86
2023-02-25T03:52:51.127Z,10.97
2023-02-25T03:55:19.378Z,10.73
2023-02-25T03:57:48.319Z,10.46
2023-02-25T04:00:19.133Z,10.66
2023-02-25T04:02:47.144Z,10.28
2023-02-25T04:05:14.852Z,10.48
2023-02-25T04:07:42.130Z,10.80
2023-02-25T04:10:10.656Z,10.48
2023-02-25T04:12:37.785Z,10.54
2023-02-25T04:15:06.042Z,10.69
2023-02-25T04:17:33.836Z,11.24
2023-02-25T04:20:00.968Z,11.66
2023-02-25T04:22:28.116Z,11.85
2023-02-25T04:24:55.566Z,12.30
2023-02-25T04:27:22.733Z,12.46
2023-02-25T04:29:49.842Z,12.43
2023-02-25T04:32:17.365Z,12.21
2023-02-25T04:34:44.556Z,12.38
2023-02-25T04:37:11.719Z,12.45
2023-02-25T04:39:39.146Z,12.42
2023-02-25T04:42:06.333Z,12.43
2023-02-25T04:44:33.626Z,12.18
2023-02-25T04:47:01.063Z,12.48
2023-02-25T04:49:28.178Z,12.32
2023-02-25T04:51:55.317Z,12.28
2023-02-25T04:54:22.767Z,12.19
2023-02-25T04:56:49.953Z,12.17
2023-02-25T04:59:17.162Z,11.90
2023-02-25T05:01:44.768Z,11.84
2023-02-25T05:04:11.957Z,11.11
2023-02-25T05:06:39.263Z,11.41
2023-02-25T05:09:08.740Z,11.21
2023-02-25T05:11:37.205Z,10.87
2023-02-25T05:14:04.332Z,10.78
2023-02-25T05:16:31.842Z,10.97
2023-02-25T05:18:59.039Z,11.35
2023-02-25T05:21:26.593Z,11.56
2023-02-25T05:23:54.278Z,11.41
2023-02-25T05:26:22.465Z,11.01
2023-02-25T05:28:53.138Z,11.06
2023-02-25T05:31:20.791Z,11.43
2023-02-25T05:33:48.083Z,11.54
2023-02-25T05:36:15.601Z,11.65
2023-02-25T05:38:43.237Z,11.84
2023-02-25T05:41:10.629Z,10.81
2023-02-25T05:43:38.239Z,11.57
2023-02-25T05:46:09.118Z,12.14
2023-02-25T05:48:36.315Z,11.57
2023-02-25T05:51:04.750Z,11.61
2023-02-25T05:53:32.214Z,11.34
2023-02-25T05:55:59.341Z,11.48
2023-02-25T05:58:26.525Z,11.33
2023-02-25T06:00:54.055Z,11.05
2023-02-25T06:03:21.777Z,11.25
2023-02-25T06:05:48.989Z,10.80
2023-02-25T06:08:16.115Z,10.92
2023-02-25T06:10:43.549Z,10.82
2023-02-25T06:13:11.167Z,10.68
2023-02-25T06:15:38.943Z,10.28
2023-02-25T06:18:06.585Z,9.59
2023-02-25T06:20:35.262Z,10.32
2023-02-25T06:23:02.866Z,9.39
2023-02-25T06:25:30.493Z,10.05
2023-02-25T06:27:58.198Z,9.68
2023-02-25T06:30:25.502Z,9.88
2023-02-25T06:32:53.103Z,10.67
2023-02-25T06:35:23.454Z,10.01
2023-02-25T06:37:51.213Z,10.02
2023-02-25T06:40:18.681Z,10.05
2023-02-25T06:42:45.822Z,10.06
2023-02-25T06:45:13.124Z,10.55
2023-02-25T06:47:40.952Z,10.06
2023-02-25T06:50:10.764Z,10.32
2023-02-25T06:52:37.953Z,9.98
2023-02-25T06:55:06.824Z,10.67
2023-02-25T06:57:34.234Z,10.16
2023-02-25T07:00:01.437Z,10.40
2023-02-25T07:02:28.916Z,10.63
2023-02-25T07:04:56.246Z,10.68
2023-02-25T07:07:23.492Z,10.70
2023-02-25T07:09:50.901Z,10.55
2023-02-25T07:12:18.315Z,10.48
2023-02-25T07:14:45.626Z,10.29
2023-02-25T07:17:13.085Z,10.12
2023-02-25T07:19:40.251Z,9.70
2023-02-25T07:22:09.909Z,9.66
2023-02-25T07:24:37.430Z,9.86
2023-02-25T07:27:04.630Z,10.09
2023-02-25T07:29:32.014Z,9.93
2023-02-25T07:32:00.207Z,9.74
2023-02-25T07:34:27.493Z,9.71
2023-02-25T07:36:54.656Z,9.38
2023-02-25T07:39:22.091Z,9.13
2023-02-25T07:41:49.242Z,9.30
2023-02-25T07:44:17.338Z,8.83
2023-02-25T07:46:44.831Z,8.22
2023-02-25T07:49:12.134Z,7.98
2023-02-25T07:51:39.311Z,7.80
2023-02-25T07:54:06.707Z,8.08
2023-02-25T07:56:33.917Z,8.13
2023-02-25T07:59:01.284Z,8.30
2023-02-25T08:01:33.960Z,8.03
2023-02-25T08:04:04.279Z,8.40
2023-02-25T08:06:32.129Z,8.36
2023-02-25T08:08:59.340Z,8.19
2023-02-25T08:11:27.499Z,8.22
2023-02-25T08:13:54.735Z,8.51
2023-02-25T08:16:22.413Z,8.40
2023-02-25T08:18:49.995Z,8.46
2023-02-25T08:21:21.797Z,8.94
2023-02-25T08:23:50.249Z,8.85
2023-02-25T08:26:17.873Z,8.89
2023-02-25T08:28:45.682Z,8.45
2023-02-25T08:31:13.216Z,8.63
2023-02-25T08:33:41.137Z,9.15
2023-02-25T08:36:27.790Z,8.81
2023-02-25T08:38:55.449Z,9.20
2023-02-25T08:41:23.017Z,8.82
2023-02-25T08:43:52.105Z,8.90
2023-02-25T08:46:21.212Z,9.11
2023-02-25T08:48:49.366Z,8.91
2023-02-25T08:51:16.522Z,8.90
2023-02-25T08:53:43.934Z,8.71
2023-02-25T08:56:12.402Z,8.94
2023-02-25T08:58:39.939Z,8.85
2023-02-25T09:01:09.099Z,8.48
2023-02-25T09:03:36.407Z,9.22
2023-02-25T09:06:03.611Z,9.32
2023-02-25T09:08:31.524Z,8.90
2023-02-25T09:10:58.716Z,9.13
2023-02-25T09:13:25.866Z,9.15
2023-02-25T09:15:57.392Z,8.75
2023-02-25T09:18:24.768Z,9.05
2023-02-25T09:20:52.050Z,10.01
2023-02-25T09:23:19.476Z,9.56
2023-02-25T09:25:46.894Z,9.05
2023-02-25T09:28:14.048Z,9.39
2023-02-25T09:30:43.777Z,9.40
2023-02-25T09:33:11.046Z,9.36
2023-02-25T09:35:38.390Z,9.05
2023-02-25T09:38:05.808Z,9.54
2023-02-25T09:40:33.020Z,9.78
2023-02-25T09:43:03.182Z,10.36
2023-02-25T09:45:30.680Z,10.51
2023-02-25T09:47:58.765Z,10.68
2023-02-25T09:50:27.524Z,10.55
2023-02-25T09:53:15.318Z,10.57
2023-02-25T09:55:43.695Z,10.71
2023-02-25T09:58:11.068Z,10.54
2023-02-25T10:00:43.279Z,10.84
2023-02-25T10:03:16.891Z,11.56
2023-02-25T10:05:44.276Z,11.12
2023-02-25T10:08:26.984Z,11.49
2023-02-25T10:11:01.716Z,11.74
2023-02-25T10:13:46.479Z,11.86
2023-02-25T10:16:18.420Z,11.99
2023-02-25T10:18:48.870Z,11.69
2023-02-25T10:21:35.372Z,11.29
2023-02-25T10:24:13.640Z,11.10
2023-02-25T10:26:42.612Z,10.65
2023-02-25T10:29:14.357Z,11.00
2023-02-25T10:31:44.129Z,11.09
2023-02-25T10:34:28.104Z,11.10
2023-02-25T10:36:56.562Z,10.65
2023-02-25T10:39:24.401Z,10.07
2023-02-25T10:41:51.586Z,9.93
2023-02-25T10:44:18.760Z,9.61
2023-02-25T10:47:02.904Z,10.54
2023-02-25T10:49:30.683Z,10.26
2023-02-25T10:51:58.852Z,10.40
2023-02-25T10:54:27.885Z,10.52
2023-02-25T10:56:55.070Z,10.80
2023-02-25T10:59:31.122Z,10.69
2023-02-25T11:01:59.230Z,11.18
2023-02-25T11:04:32.776Z,11.61
2023-02-25T11:07:00.011Z,12.14
2023-02-25T11:09:29.389Z,11.29
2023-02-25T11:12:00.293Z,11.86
2023-02-25T11:14:31.352Z,12.40
2023-02-25T11:17:02.801Z,12.43
2023-02-25T11:19:31.683Z,12.65
2023-02-25T11:21:59.658Z,12.19
2023-02-25T11:24:31.369Z,11.87
2023-02-25T11:26:58.972Z,11.40
2023-02-25T11:29:29.173Z,11.68
2023-02-25T11:31:59.381Z,11.67
2023-02-25T11:34:27.451Z,12.43
2023-02-25T11:36:54.662Z,11.44
2023-02-25T11:39:22.966Z,11.59
2023-02-25T11:41:51.336Z,12.36
2023-02-25T11:44:23.186Z,12.68
2023-02-25T11:46:56.699Z,12.06
2023-02-25T11:49:29.492Z,11.87
2023-02-25T11:52:02.922Z,12.08
2023-02-25T11:54:31.737Z,11.69
2023-02-25T11:57:17.649Z,11.30
2023-02-25T11:59:48.166Z,11.35
2023-02-25T12:02:20.565Z,11.58
2023-02-25T12:04:50.836Z,11.54
2023-02-25T12:07:36.923Z,11.83
2023-02-25T12:10:23.060Z,11.61
2023-02-25T12:13:19.750Z,11.52
2023-02-25T12:16:07.964Z,11.73
2023-02-25T12:18:41.079Z,11.68
2023-02-25T12:21:14.414Z,11.47
2023-02-25T12:23:44.625Z,11.68
2023-02-25T12:26:12.480Z,11.56
2023-02-25T12:28:45.688Z,11.61
2023-02-25T12:31:19.957Z,11.35
2023-02-25T12:33:50.302Z,11.19
2023-02-25T12:36:23.685Z,11.21
2023-02-25T12:39:09.339Z,11.53
2023-02-25T12:41:40.563Z,11.24
2023-02-25T12:44:15.130Z,11.06
2023-02-25T12:46:46.112Z,10.76
2023-02-25T12:49:32.310Z,10.95
2023-02-25T12:52:03.690Z,10.84
2023-02-25T12:54:36.284Z,11.12
2023-02-25T12:57:03.675Z,10.72
2023-02-25T12:59:34.804Z,10.93
2023-02-25T13:02:21.784Z,11.29
2023-02-25T13:05:09.531Z,11.09
2023-02-25T13:07:48.259Z,11.15
2023-02-25T13:10:30.922Z,11.08
2023-02-25T13:13:17.149Z,11.30
2023-02-25T13:15:44.484Z,10.87
2023-02-25T13:18:19.230Z,10.88
2023-02-25T13:21:05.867Z,11.26
2023-02-25T13:23:40.107Z,11.18
2023-02-25T13:26:26.576Z,11.24
2023-02-25T13:29:09.235Z,11.18
2023-02-25T13:31:43.410Z,10.99
2023-02-25T13:34:29.351Z,11.25
2023-02-25T13:37:05.145Z,10.52
2023-02-25T13:39:54.493Z,11.04
2023-02-25T13:42:27.565Z,11.02
2023-02-25T13:45:10.057Z,10.60
2023-02-25T13:47:42.347Z,10.60
2023-02-25T13:50:28.248Z,10.71
2023-02-25T13:53:14.433Z,10.79
2023-02-25T13:56:11.664Z,10.66
2023-02-25T13:58:57.979Z,10.93
2023-02-25T14:01:30.131Z,10.90
2023-02-25T14:04:03.724Z,10.98
2023-02-25T14:06:35.775Z,10.69
2023-02-25T14:09:06.721Z,10.56
2023-02-25T14:11:39.196Z,11.01
2023-02-25T14:14:13.303Z,11.51
2023-02-25T14:16:44.869Z,11.00
2023-02-25T14:19:15.330Z,10.95
2023-02-25T14:21:55.061Z,11.31
2023-02-25T14:24:24.509Z,11.33
2023-02-25T14:26:56.227Z,11.55
2023-02-25T14:29:39.124Z,11.24
2023-02-25T14:32:21.799Z,11.36
2023-02-25T14:35:01.771Z,11.07
2023-02-25T14:37:35.341Z,11.60
2023-02-25T14:40:05.559Z,11.29
2023-02-25T14:42:48.415Z,11.43
2023-02-25T14:45:19.078Z,11.31
2023-02-25T14:47:46.580Z,11.21
2023-02-25T14:50:13.809Z,11.41
2023-02-25T14:52:41.211Z,11.28
2023-02-25T14:55:26.970Z,10.95
2023-02-25T14:57:54.336Z,10.86
2023-02-25T15:00:27.665Z,10.71
2023-02-25T15:03:16.293Z,10.80
2023-02-25T15:06:03.708Z,10.86
2023-02-25T15:08:50.252Z,11.11
2023-02-25T15:11:36.158Z,11.20
2023-02-25T15:14:07.985Z,11.82
2023-02-25T15:16:41.725Z,12.22
2023-02-25T15:19:27.217Z,11.67
2023-02-25T15:22:13.281Z,11.61
2023-02-25T15:24:41.396Z,11.99
2023-02-25T15:27:27.041Z,11.51
2023-02-25T15:30:02.066Z,11.78
2023-02-25T15:32:31.025Z,11.14
2023-02-25T15:35:00.064Z,11.36
2023-02-25T15:37:30.748Z,11.12
2023-02-25T15:40:12.937Z,10.95
2023-02-25T15:42:46.404Z,10.94
2023-02-25T15:45:28.787Z,11.26
2023-02-25T15:48:08.404Z,11.08
2023-02-25T15:50:47.759Z,11.16
2023-02-25T15:53:36.851Z,11.27
2023-02-25T15:56:03.996Z,10.73
2023-02-25T15:58:31.373Z,11.31
2023-02-25T16:01:04.847Z,11.61
2023-02-25T16:03:32.442Z,11.85
2023-02-25T16:06:00.602Z,12.41
2023-02-25T16:08:28.895Z,12.50
2023-02-25T16:10:56.398Z,12.36
2023-02-25T16:13:26.752Z,12.03
2023-02-25T16:15:54.052Z,12.07
2023-02-25T16:18:27.671Z,11.93
2023-02-25T16:20:58.475Z,12.22
2023-02-25T16:23:27.070Z,12.33
2023-02-25T16:26:01.744Z,12.23
2023-02-25T16:28:42.131Z,12.38
2023-02-25T16:31:30.404Z,12.17
2023-02-25T16:33:57.968Z,12.48
2023-02-25T16:36:44.293Z,12.42
2023-02-25T16:39:12.701Z,12.81
2023-02-25T16:41:40.499Z,12.37
2023-02-25T16:44:08.180Z,12.42
2023-02-25T16:46:37.424Z,12.69
2023-02-25T16:49:11.513Z,12.46
2023-02-25T16:51:39.738Z,12.66
2023-02-25T16:54:09.173Z,12.76
2023-02-25T16:56:36.402Z,12.85
2023-02-25T16:59:15.751Z,12.78
2023-02-25T17:01:47.876Z,12.69
2023-02-25T17:04:17.158Z,12.71
2023-02-25T17:06:44.358Z,12.72
2023-02-25T17:09:24.448Z,12.60
2023-02-25T17:11:55.104Z,12.55
2023-02-25T17:14:22.329Z,12.59
2023-02-25T17:16:49.736Z,12.55
2023-02-25T17:19:17.588Z,12.53
2023-02-25T17:21:46.521Z,12.47
2023-02-25T17:24:14.697Z,12.51
2023-02-25T17:26:46.447Z,12.47
2023-02-25T17:29:14.549Z,12.38
2023-02-25T17:31:46.394Z,12.33
2023-02-25T17:34:14.393Z,12.21
2023-02-25T17:36:41.988Z,11.99
2023-02-25T17:39:13.651Z,11.73
2023-02-25T17:41:43.746Z,11.83
2023-02-25T17:44:31.454Z,11.43
2023-02-25T17:46:58.798Z,11.68
2023-02-25T17:49:31.263Z,11.12
2023-02-25T17:51:59.577Z,11.74
2023-02-25T17:54:27.865Z,11.90
2023-02-25T17:56:56.088Z,11.38
2023-02-25T17:59:38.205Z,11.66
2023-02-25T18:02:24.668Z,11.03
2023-02-25T18:04:52.253Z,11.10
2023-02-25T18:07:21.262Z,9.70
2023-02-25T18:09:48.992Z,10.12
2023-02-25T18:12:30.011Z,10.45
2023-02-25T18:14:58.360Z,10.48
2023-02-25T18:17:25.913Z,10.88
2023-02-25T18:19:56.370Z,10.93
2023-02-25T18:22:23.513Z,10.97
2023-02-25T18:24:51.924Z,11.26
2023-02-25T18:27:20.909Z,11.18
2023-02-25T18:29:48.492Z,11.35
2023-02-25T18:32:16.121Z,11.31
2023-02-25T18:34:43.527Z,11.09
2023-02-25T18:37:13.043Z,11.24
2023-02-25T18:39:40.759Z,11.18
2023-02-25T18:42:10.479Z,11.13
2023-02-25T18:44:37.641Z,11.30
2023-02-25T18:47:05.061Z,11.30
2023-02-25T18:49:32.424Z,11.22
2023-02-25T18:51:59.582Z,11.24
2023-02-25T18:54:27.176Z,10.67
2023-02-25T18:56:54.551Z,10.77
2023-02-25T18:59:21.732Z,10.19
2023-02-25T19:01:50.562Z,10.11
2023-02-25T19:04:17.969Z,10.02
2023-02-25T19:06:46.760Z,10.14
2023-02-25T19:09:14.239Z,10.17
2023-02-25T19:11:41.638Z,9.81
2023-02-25T19:14:08.818Z,9.62
2023-02-25T19:16:36.589Z,9.83
2023-02-25T19:19:04.104Z,9.34
2023-02-25T19:21:32.022Z,9.33
2023-02-25T19:23:59.629Z,9.74
2023-02-25T19:26:27.271Z,9.31
2023-02-25T19:28:54.567Z,9.52
2023-02-25T19:31:22.241Z,9.55
2023-02-25T19:33:49.519Z,9.47
2023-02-25T19:36:16.684Z,9.49
2023-02-25T19:38:44.323Z,10.03
2023-02-25T19:41:14.205Z,9.55
2023-02-25T19:43:41.369Z,10.28
2023-02-25T19:46:09.117Z,10.41
2023-02-25T19:48:36.321Z,10.47
2023-02-25T19:51:07.685Z,10.60
2023-02-25T19:53:35.743Z,10.72
2023-02-25T19:56:07.835Z,10.64
2023-02-25T19:58:35.336Z,11.01
2023-02-25T20:01:03.772Z,11.34
2023-02-25T20:03:31.285Z,11.24
2023-02-25T20:06:03.652Z,11.58
2023-02-25T20:08:31.224Z,11.14
2023-02-25T20:10:58.963Z,11.41
2023-02-25T20:13:26.161Z,11.59
2023-02-25T20:15:59.179Z,11.50
2023-02-25T20:18:26.554Z,11.42
2023-02-25T20:20:54.057Z,11.42
2023-02-25T20:23:21.202Z,10.98
2023-02-25T20:25:48.578Z,11.46
2023-02-25T20:28:16.158Z,11.40
2023-02-25T20:30:43.625Z,11.51
2023-02-25T20:33:11.415Z,11.34
2023-02-25T20:35:39.206Z,10.60
2023-02-25T20:38:27.263Z,11.14
2023-02-25T20:40:54.796Z,11.36
2023-02-25T20:43:22.010Z,11.35
2023-02-25T20:45:49.469Z,11.30
2023-02-25T20:48:21.382Z,11.06
2023-02-25T20:50:48.714Z,10.80
2023-02-25T20:53:17.244Z,10.69
2023-02-25T20:55:44.870Z,11.19
2023-02-25T20:58:12.060Z,11.22
2023-02-25T21:00:39.527Z,11.11
2023-02-25T21:03:07.103Z,11.35
2023-02-25T21:05:34.318Z,10.95
2023-02-25T21:08:01.586Z,11.34
2023-02-25T21:10:29.178Z,11.46
2023-02-25T21:12:56.392Z,11.05
2023-02-25T21:15:23.542Z,11.24
2023-02-25T21:17:51.064Z,11.18
2023-02-25T21:20:18.253Z,10.91
2023-02-25T21:22:45.569Z,11.25
2023-02-25T21:25:13.278Z,11.31
2023-02-25T21:27:40.449Z,11.70
2023-02-25T21:30:07.844Z,11.60
2023-02-25T21:32:35.494Z,11.52
2023-02-25T21:35:02.809Z,11.46
2023-02-25T21:37:30.510Z,11.51
2023-02-25T21:39:58.126Z,11.57
2023-02-25T21:42:25.292Z,11.67
2023-02-25T21:44:52.514Z,11.28
2023-02-25T21:47:20.131Z,11.43
2023-02-25T21:49:47.453Z,11.15
2023-02-25T21:52:16.504Z,11.24
2023-02-25T21:54:44.090Z,11.40
2023-02-25T21:57:11.339Z,11.30
2023-02-25T21:59:38.546Z,11.24
2023-02-25T22:02:05.991Z,11.27
2023-02-25T22:04:33.498Z,11.36
2023-02-25T22:07:00.767Z,11.30
2023-02-25T22:09:28.167Z,11.19
2023-02-25T22:11:55.576Z,11.04
2023-02-25T22:14:24.814Z,10.80
2023-02-25T22:16:51.993Z,10.46
2023-02-25T22:19:19.429Z,10.79
2023-02-25T22:21:46.778Z,10.77
2023-02-25T22:24:14.282Z,10.59
2023-02-25T22:26:41.849Z,11.03
2023-02-25T22:29:09.814Z,11.04
2023-02-25T22:31:37.098Z,11.12
2023-02-25T22:34:04.835Z,10.88
2023-02-25T22:36:32.035Z,11.18
2023-02-25T22:38:59.187Z,11.08
2023-02-25T22:41:27.949Z,10.35
2023-02-25T22:43:55.175Z,10.53
2023-02-25T22:46:23.976Z,10.84
2023-02-25T22:48:51.549Z,10.83
2023-02-25T22:51:23.231Z,10.73
2023-02-25T22:53:50.438Z,10.20
2023-02-25T22:56:17.849Z,11.15
2023-02-25T22:58:45.119Z,11.14
2023-02-25T23:01:12.989Z,11.34
2023-02-25T23:03:40.713Z,11.17
2023-02-25T23:06:07.865Z,10.71
2023-02-25T23:08:35.266Z,9.95
2023-02-25T23:11:11.936Z,10.72
2023-02-25T23:13:45.954Z,10.29
2023-02-25T23:16:17.382Z,11.12
2023-02-25T23:18:45.114Z,10.72
2023-02-25T23:21:16.477Z,10.99
2023-02-25T23:23:43.986Z,10.63
2023-02-25T23:26:12.153Z,10.63
2023-02-25T23:28:39.440Z,10.23
2023-02-25T23:31:07.019Z,10.52
2023-02-25T23:33:34.281Z,10.87
2023-02-25T23:36:04.765Z,10.49
2023-02-25T23:38:32.246Z,10.84
2023-02-25T23:40:59.640Z,11.05
2023-02-25T23:43:26.755Z,10.09
2023-02-25T23:45:54.222Z,11.06
2023-02-25T23:48:21.393Z,10.58
2023-02-25T23:50:48.584Z,10.78
2023-02-25T23:53:16.112Z,10.52
2023-02-25T23:55:43.299Z,10.84
2023-02-25T23:58:10.741Z,10.80
